sensor_id;sensor_type;location;lat;lon;timestamp;P1;durP1;ratioP1;P2;durP2;ratioP2
55136;SDS011;41032;47.818;-3.732;2022-07-11T00:00:18;3.70;;;1.08;;
55136;SDS011;41032;47.818;-3.732;2022-07-11T00:02:46;5.68;;;1.40;;
55136;SDS011;41032;47.818;-3.732;2022-07-11T00:05:15;6.38;;;1.30;;
55136;SDS011;41032;47.818;-3.732;2022-07-11T00:07:43;3.65;;;1.30;;
55136;SDS011;41032;47.818;-3.732;2022-07-11T00:10:13;18.33;;;1.45;;
55136;SDS011;41032;47.818;-3.732;2022-07-11T00:12:42;4.47;;;1.05;;
55136;SDS011;41032;47.818;-3.732;2022-07-11T00:15:10;4.28;;;1.23;;
55136;SDS011;41032;47.818;-3.732;2022-07-11T00:17:39;6.72;;;1.50;;
55136;SDS011;41032;47.818;-3.732;2022-07-11T00:20:07;6.68;;;1.40;;
55136;SDS011;41032;47.818;-3.732;2022-07-11T00:22:36;4.28;;;1.55;;
55136;SDS011;41032;47.818;-3.732;2022-07-11T00:25:05;5.80;;;1.48;;
55136;SDS011;41032;47.818;-3.732;2022-07-11T00:27:33;2.70;;;1.30;;
55136;SDS011;41032;47.818;-3.732;2022-07-11T00:30:02;6.53;;;1.63;;
55136;SDS011;41032;47.818;-3.732;2022-07-11T00:32:31;2.47;;;1.20;;
55136;SDS011;41032;47.818;-3.732;2022-07-11T00:34:59;3.20;;;1.13;;
55136;SDS011;41032;47.818;-3.732;2022-07-11T00:37:28;4.45;;;1.48;;
55136;SDS011;41032;47.818;-3.732;2022-07-11T00:39:56;9.07;;;1.30;;
55136;SDS011;41032;47.818;-3.732;2022-07-11T00:42:25;5.95;;;1.20;;
55136;SDS011;41032;47.818;-3.732;2022-07-11T00:44:53;4.85;;;1.40;;
55136;SDS011;41032;47.818;-3.732;2022-07-11T00:47:22;3.22;;;1.80;;
55136;SDS011;41032;47.818;-3.732;2022-07-11T00:49:51;3.40;;;1.10;;
55136;SDS011;41032;47.818;-3.732;2022-07-11T00:52:19;5.00;;;1.30;;
55136;SDS011;41032;47.818;-3.732;2022-07-11T00:54:47;3.72;;;1.40;;
55136;SDS011;41032;47.818;-3.732;2022-07-11T00:57:15;4.03;;;1.10;;
55136;SDS011;41032;47.818;-3.732;2022-07-11T00:59:44;7.00;;;1.25;;
55136;SDS011;41032;47.818;-3.732;2022-07-11T01:02:13;4.35;;;1.23;;
55136;SDS011;41032;47.818;-3.732;2022-07-11T01:04:41;2.35;;;0.93;;
55136;SDS011;41032;47.818;-3.732;2022-07-11T01:07:10;4.30;;;1.50;;
55136;SDS011;41032;47.818;-3.732;2022-07-11T01:09:39;5.15;;;1.55;;
55136;SDS011;41032;47.818;-3.732;2022-07-11T01:12:07;3.28;;;1.30;;
55136;SDS011;41032;47.818;-3.732;2022-07-11T01:14:36;5.97;;;1.38;;
55136;SDS011;41032;47.818;-3.732;2022-07-11T01:17:03;5.25;;;1.40;;
55136;SDS011;41032;47.818;-3.732;2022-07-11T01:19:32;4.07;;;1.27;;
55136;SDS011;41032;47.818;-3.732;2022-07-11T01:22:00;6.07;;;1.65;;
55136;SDS011;41032;47.818;-3.732;2022-07-11T01:24:31;6.78;;;2.03;;
55136;SDS011;41032;47.818;-3.732;2022-07-11T01:27:00;4.53;;;1.15;;
55136;SDS011;41032;47.818;-3.732;2022-07-11T01:29:29;4.85;;;1.85;;
55136;SDS011;41032;47.818;-3.732;2022-07-11T01:31:58;2.78;;;1.23;;
55136;SDS011;41032;47.818;-3.732;2022-07-11T01:34:27;4.45;;;1.10;;
55136;SDS011;41032;47.818;-3.732;2022-07-11T01:36:55;6.18;;;1.23;;
55136;SDS011;41032;47.818;-3.732;2022-07-11T01:39:24;3.97;;;1.40;;
55136;SDS011;41032;47.818;-3.732;2022-07-11T01:41:56;5.22;;;1.65;;
55136;SDS011;41032;47.818;-3.732;2022-07-11T01:44:25;4.40;;;1.10;;
55136;SDS011;41032;47.818;-3.732;2022-07-11T01:46:54;5.70;;;1.40;;
55136;SDS011;41032;47.818;-3.732;2022-07-11T01:49:22;5.22;;;1.27;;
55136;SDS011;41032;47.818;-3.732;2022-07-11T01:51:49;2.67;;;1.15;;
55136;SDS011;41032;47.818;-3.732;2022-07-11T01:54:18;3.40;;;1.38;;
55136;SDS011;41032;47.818;-3.732;2022-07-11T01:56:46;6.78;;;1.38;;
55136;SDS011;41032;47.818;-3.732;2022-07-11T01:59:15;7.20;;;1.42;;
55136;SDS011;41032;47.818;-3.732;2022-07-11T02:01:43;4.20;;;1.60;;
55136;SDS011;41032;47.818;-3.732;2022-07-11T02:04:12;2.88;;;1.10;;
55136;SDS011;41032;47.818;-3.732;2022-07-11T02:06:40;4.10;;;1.00;;
55136;SDS011;41032;47.818;-3.732;2022-07-11T02:09:08;2.58;;;1.13;;
55136;SDS011;41032;47.818;-3.732;2022-07-11T02:11:37;4.25;;;1.17;;
55136;SDS011;41032;47.818;-3.732;2022-07-11T02:14:06;3.20;;;1.40;;
55136;SDS011;41032;47.818;-3.732;2022-07-11T02:16:34;5.72;;;1.85;;
55136;SDS011;41032;47.818;-3.732;2022-07-11T02:19:03;3.03;;;1.20;;
55136;SDS011;41032;47.818;-3.732;2022-07-11T02:21:32;6.65;;;1.73;;
55136;SDS011;41032;47.818;-3.732;2022-07-11T02:24:01;5.85;;;1.30;;
55136;SDS011;41032;47.818;-3.732;2022-07-11T02:26:30;6.95;;;1.55;;
55136;SDS011;41032;47.818;-3.732;2022-07-11T02:28:59;3.17;;;1.35;;
55136;SDS011;41032;47.818;-3.732;2022-07-11T02:31:28;3.78;;;1.17;;
55136;SDS011;41032;47.818;-3.732;2022-07-11T02:33:56;4.55;;;1.20;;
55136;SDS011;41032;47.818;-3.732;2022-07-11T02:36:25;3.00;;;1.35;;
55136;SDS011;41032;47.818;-3.732;2022-07-11T02:38:53;2.55;;;1.10;;
55136;SDS011;41032;47.818;-3.732;2022-07-11T02:41:21;5.72;;;1.48;;
55136;SDS011;41032;47.818;-3.732;2022-07-11T02:43:52;5.50;;;1.35;;
55136;SDS011;41032;47.818;-3.732;2022-07-11T02:46:20;3.60;;;1.52;;
55136;SDS011;41032;47.818;-3.732;2022-07-11T02:48:48;4.38;;;1.30;;
55136;SDS011;41032;47.818;-3.732;2022-07-11T02:51:16;4.20;;;1.17;;
55136;SDS011;41032;47.818;-3.732;2022-07-11T02:53:45;4.47;;;1.58;;
55136;SDS011;41032;47.818;-3.732;2022-07-11T02:56:13;5.05;;;1.48;;
55136;SDS011;41032;47.818;-3.732;2022-07-11T02:58:42;5.75;;;1.58;;
55136;SDS011;41032;47.818;-3.732;2022-07-11T03:01:10;3.22;;;1.10;;
55136;SDS011;41032;47.818;-3.732;2022-07-11T03:03:38;3.60;;;1.40;;
55136;SDS011;41032;47.818;-3.732;2022-07-11T03:06:07;4.72;;;1.38;;
55136;SDS011;41032;47.818;-3.732;2022-07-11T03:08:37;2.60;;;1.13;;
55136;SDS011;41032;47.818;-3.732;2022-07-11T03:11:05;2.78;;;1.08;;
55136;SDS011;41032;47.818;-3.732;2022-07-11T03:13:32;4.65;;;1.30;;
55136;SDS011;41032;47.818;-3.732;2022-07-11T03:16:01;3.58;;;1.20;;
55136;SDS011;41032;47.818;-3.732;2022-07-11T03:18:30;3.30;;;1.15;;
55136;SDS011;41032;47.818;-3.732;2022-07-11T03:20:58;5.43;;;1.05;;
55136;SDS011;41032;47.818;-3.732;2022-07-11T03:23:27;2.13;;;0.90;;
55136;SDS011;41032;47.818;-3.732;2022-07-11T03:25:55;4.32;;;1.15;;
55136;SDS011;41032;47.818;-3.732;2022-07-11T03:28:23;3.13;;;1.20;;
55136;SDS011;41032;47.818;-3.732;2022-07-11T03:30:50;3.28;;;1.48;;
55136;SDS011;41032;47.818;-3.732;2022-07-11T03:33:19;9.00;;;1.65;;
55136;SDS011;41032;47.818;-3.732;2022-07-11T03:35:48;5.32;;;1.42;;
55136;SDS011;41032;47.818;-3.732;2022-07-11T03:38:18;3.70;;;1.13;;
55136;SDS011;41032;47.818;-3.732;2022-07-11T03:40:47;6.90;;;1.40;;
55136;SDS011;41032;47.818;-3.732;2022-07-11T03:43:16;2.22;;;0.93;;
55136;SDS011;41032;47.818;-3.732;2022-07-11T03:45:44;6.53;;;1.10;;
55136;SDS011;41032;47.818;-3.732;2022-07-11T03:48:14;2.63;;;1.02;;
55136;SDS011;41032;47.818;-3.732;2022-07-11T03:50:41;2.28;;;1.15;;
55136;SDS011;41032;47.818;-3.732;2022-07-11T03:53:10;3.33;;;1.40;;
55136;SDS011;41032;47.818;-3.732;2022-07-11T03:55:38;2.35;;;1.17;;
55136;SDS011;41032;47.818;-3.732;2022-07-11T03:58:06;3.22;;;1.15;;
55136;SDS011;41032;47.818;-3.732;2022-07-11T04:00:35;3.78;;;1.50;;
55136;SDS011;41032;47.818;-3.732;2022-07-11T04:03:03;5.32;;;0.95;;
55136;SDS011;41032;47.818;-3.732;2022-07-11T04:05:32;3.22;;;1.30;;
55136;SDS011;41032;47.818;-3.732;2022-07-11T04:08:00;4.25;;;1.15;;
55136;SDS011;41032;47.818;-3.732;2022-07-11T04:10:28;3.85;;;1.30;;
55136;SDS011;41032;47.818;-3.732;2022-07-11T04:12:58;3.20;;;1.35;;
55136;SDS011;41032;47.818;-3.732;2022-07-11T04:15:26;4.15;;;1.65;;
55136;SDS011;41032;47.818;-3.732;2022-07-11T04:17:54;2.65;;;1.25;;
55136;SDS011;41032;47.818;-3.732;2022-07-11T04:20:22;3.70;;;1.10;;
55136;SDS011;41032;47.818;-3.732;2022-07-11T04:22:50;3.28;;;1.23;;
55136;SDS011;41032;47.818;-3.732;2022-07-11T04:25:18;4.55;;;1.48;;
55136;SDS011;41032;47.818;-3.732;2022-07-11T04:27:47;4.18;;;1.35;;
55136;SDS011;41032;47.818;-3.732;2022-07-11T04:30:15;2.58;;;1.05;;
55136;SDS011;41032;47.818;-3.732;2022-07-11T04:32:44;4.95;;;1.52;;
55136;SDS011;41032;47.818;-3.732;2022-07-11T04:35:13;3.10;;;1.35;;
55136;SDS011;41032;47.818;-3.732;2022-07-11T04:37:43;4.57;;;1.65;;
55136;SDS011;41032;47.818;-3.732;2022-07-11T04:40:11;2.63;;;1.10;;
55136;SDS011;41032;47.818;-3.732;2022-07-11T04:42:40;2.58;;;1.20;;
55136;SDS011;41032;47.818;-3.732;2022-07-11T04:45:09;3.05;;;1.08;;
55136;SDS011;41032;47.818;-3.732;2022-07-11T04:47:37;6.43;;;1.15;;
55136;SDS011;41032;47.818;-3.732;2022-07-11T04:50:06;3.80;;;1.40;;
55136;SDS011;41032;47.818;-3.732;2022-07-11T04:52:34;2.90;;;1.20;;
55136;SDS011;41032;47.818;-3.732;2022-07-11T04:55:03;3.83;;;1.40;;
55136;SDS011;41032;47.818;-3.732;2022-07-11T04:57:32;4.25;;;1.05;;
55136;SDS011;41032;47.818;-3.732;2022-07-11T05:00:00;2.17;;;1.08;;
55136;SDS011;41032;47.818;-3.732;2022-07-11T05:02:29;4.50;;;1.27;;
55136;SDS011;41032;47.818;-3.732;2022-07-11T05:04:56;2.78;;;1.48;;
55136;SDS011;41032;47.818;-3.732;2022-07-11T05:07:24;6.55;;;1.10;;
55136;SDS011;41032;47.818;-3.732;2022-07-11T05:09:52;4.40;;;1.20;;
55136;SDS011;41032;47.818;-3.732;2022-07-11T05:12:20;2.13;;;1.02;;
55136;SDS011;41032;47.818;-3.732;2022-07-11T05:14:48;4.60;;;1.20;;
55136;SDS011;41032;47.818;-3.732;2022-07-11T05:17:18;2.50;;;0.85;;
55136;SDS011;41032;47.818;-3.732;2022-07-11T05:19:45;4.28;;;1.27;;
55136;SDS011;41032;47.818;-3.732;2022-07-11T05:22:14;4.80;;;1.38;;
55136;SDS011;41032;47.818;-3.732;2022-07-11T05:24:43;3.85;;;1.13;;
55136;SDS011;41032;47.818;-3.732;2022-07-11T05:27:11;1.55;;;1.00;;
55136;SDS011;41032;47.818;-3.732;2022-07-11T05:29:40;5.68;;;1.70;;
55136;SDS011;41032;47.818;-3.732;2022-07-11T05:32:08;6.40;;;1.30;;
55136;SDS011;41032;47.818;-3.732;2022-07-11T05:34:37;1.98;;;0.95;;
55136;SDS011;41032;47.818;-3.732;2022-07-11T05:37:05;2.60;;;1.00;;
55136;SDS011;41032;47.818;-3.732;2022-07-11T05:39:33;3.08;;;1.35;;
55136;SDS011;41032;47.818;-3.732;2022-07-11T05:42:02;4.00;;;1.50;;
55136;SDS011;41032;47.818;-3.732;2022-07-11T05:44:30;5.25;;;1.23;;
55136;SDS011;41032;47.818;-3.732;2022-07-11T05:47:00;4.93;;;1.13;;
55136;SDS011;41032;47.818;-3.732;2022-07-11T05:49:30;3.72;;;1.45;;
55136;SDS011;41032;47.818;-3.732;2022-07-11T05:51:59;4.82;;;1.50;;
55136;SDS011;41032;47.818;-3.732;2022-07-11T05:54:28;3.38;;;1.20;;
55136;SDS011;41032;47.818;-3.732;2022-07-11T05:56:56;6.00;;;1.15;;
55136;SDS011;41032;47.818;-3.732;2022-07-11T05:59:24;4.45;;;1.40;;
55136;SDS011;41032;47.818;-3.732;2022-07-11T06:01:53;6.53;;;1.40;;
55136;SDS011;41032;47.818;-3.732;2022-07-11T06:04:21;4.53;;;1.20;;
55136;SDS011;41032;47.818;-3.732;2022-07-11T06:06:49;3.42;;;1.08;;
55136;SDS011;41032;47.818;-3.732;2022-07-11T06:09:18;5.68;;;1.40;;
55136;SDS011;41032;47.818;-3.732;2022-07-11T06:11:46;4.68;;;1.20;;
55136;SDS011;41032;47.818;-3.732;2022-07-11T06:14:15;1.85;;;0.90;;
55136;SDS011;41032;47.818;-3.732;2022-07-11T06:16:43;4.35;;;1.08;;
55136;SDS011;41032;47.818;-3.732;2022-07-11T06:19:12;4.07;;;1.08;;
55136;SDS011;41032;47.818;-3.732;2022-07-11T06:21:40;2.50;;;1.20;;
55136;SDS011;41032;47.818;-3.732;2022-07-11T06:24:08;4.80;;;1.25;;
55136;SDS011;41032;47.818;-3.732;2022-07-11T06:26:36;10.13;;;1.20;;
55136;SDS011;41032;47.818;-3.732;2022-07-11T06:29:05;5.47;;;1.25;;
55136;SDS011;41032;47.818;-3.732;2022-07-11T06:31:33;4.72;;;1.20;;
55136;SDS011;41032;47.818;-3.732;2022-07-11T06:34:01;2.35;;;1.00;;
55136;SDS011;41032;47.818;-3.732;2022-07-11T06:36:29;6.28;;;1.23;;
55136;SDS011;41032;47.818;-3.732;2022-07-11T06:38:56;5.85;;;0.77;;
55136;SDS011;41032;47.818;-3.732;2022-07-11T06:41:25;8.57;;;1.25;;
55136;SDS011;41032;47.818;-3.732;2022-07-11T06:43:54;6.40;;;1.20;;
55136;SDS011;41032;47.818;-3.732;2022-07-11T06:46:22;10.13;;;1.40;;
55136;SDS011;41032;47.818;-3.732;2022-07-11T06:48:52;5.03;;;1.30;;
55136;SDS011;41032;47.818;-3.732;2022-07-11T06:51:21;7.57;;;1.30;;
55136;SDS011;41032;47.818;-3.732;2022-07-11T06:53:51;3.92;;;1.02;;
55136;SDS011;41032;47.818;-3.732;2022-07-11T06:56:19;3.33;;;1.13;;
55136;SDS011;41032;47.818;-3.732;2022-07-11T06:58:48;4.68;;;1.10;;
55136;SDS011;41032;47.818;-3.732;2022-07-11T07:01:16;2.17;;;0.88;;
55136;SDS011;41032;47.818;-3.732;2022-07-11T07:03:45;4.53;;;1.35;;
55136;SDS011;41032;47.818;-3.732;2022-07-11T07:06:13;7.05;;;1.10;;
55136;SDS011;41032;47.818;-3.732;2022-07-11T07:08:42;3.17;;;1.00;;
55136;SDS011;41032;47.818;-3.732;2022-07-11T07:11:11;4.32;;;1.10;;
55136;SDS011;41032;47.818;-3.732;2022-07-11T07:13:40;5.88;;;1.80;;
55136;SDS011;41032;47.818;-3.732;2022-07-11T07:16:08;8.10;;;1.60;;
55136;SDS011;41032;47.818;-3.732;2022-07-11T07:18:37;4.20;;;1.55;;
55136;SDS011;41032;47.818;-3.732;2022-07-11T07:21:07;6.20;;;1.10;;
55136;SDS011;41032;47.818;-3.732;2022-07-11T07:23:36;4.00;;;0.90;;
55136;SDS011;41032;47.818;-3.732;2022-07-11T07:26:04;4.40;;;1.15;;
55136;SDS011;41032;47.818;-3.732;2022-07-11T07:28:33;3.85;;;1.17;;
55136;SDS011;41032;47.818;-3.732;2022-07-11T07:31:01;2.80;;;0.95;;
55136;SDS011;41032;47.818;-3.732;2022-07-11T07:33:30;5.85;;;1.15;;
55136;SDS011;41032;47.818;-3.732;2022-07-11T07:35:58;4.55;;;1.08;;
55136;SDS011;41032;47.818;-3.732;2022-07-11T07:38:27;7.78;;;1.00;;
55136;SDS011;41032;47.818;-3.732;2022-07-11T07:40:55;2.75;;;1.00;;
55136;SDS011;41032;47.818;-3.732;2022-07-11T07:43:24;6.38;;;0.98;;
55136;SDS011;41032;47.818;-3.732;2022-07-11T07:45:52;4.07;;;0.88;;
55136;SDS011;41032;47.818;-3.732;2022-07-11T07:48:21;4.18;;;1.00;;
55136;SDS011;41032;47.818;-3.732;2022-07-11T07:50:49;4.07;;;0.80;;
55136;SDS011;41032;47.818;-3.732;2022-07-11T07:53:17;8.25;;;1.02;;
55136;SDS011;41032;47.818;-3.732;2022-07-11T07:55:45;3.38;;;0.80;;
55136;SDS011;41032;47.818;-3.732;2022-07-11T07:58:16;3.70;;;1.02;;
55136;SDS011;41032;47.818;-3.732;2022-07-11T08:00:44;1.55;;;0.80;;
55136;SDS011;41032;47.818;-3.732;2022-07-11T08:03:31;4.10;;;1.10;;
55136;SDS011;41032;47.818;-3.732;2022-07-11T08:05:59;2.80;;;0.93;;
55136;SDS011;41032;47.818;-3.732;2022-07-11T08:08:26;8.73;;;1.05;;
55136;SDS011;41032;47.818;-3.732;2022-07-11T08:10:55;3.15;;;1.00;;
55136;SDS011;41032;47.818;-3.732;2022-07-11T08:13:26;2.72;;;0.93;;
55136;SDS011;41032;47.818;-3.732;2022-07-11T08:15:54;2.17;;;1.05;;
55136;SDS011;41032;47.818;-3.732;2022-07-11T08:18:24;3.42;;;1.10;;
55136;SDS011;41032;47.818;-3.732;2022-07-11T08:20:54;2.92;;;1.00;;
55136;SDS011;41032;47.818;-3.732;2022-07-11T08:23:22;2.97;;;1.08;;
55136;SDS011;41032;47.818;-3.732;2022-07-11T08:25:51;3.08;;;0.98;;
55136;SDS011;41032;47.818;-3.732;2022-07-11T08:28:20;4.70;;;0.90;;
55136;SDS011;41032;47.818;-3.732;2022-07-11T08:30:48;4.28;;;0.93;;
55136;SDS011;41032;47.818;-3.732;2022-07-11T08:33:17;1.38;;;0.70;;
55136;SDS011;41032;47.818;-3.732;2022-07-11T08:35:46;3.03;;;0.93;;
55136;SDS011;41032;47.818;-3.732;2022-07-11T08:38:14;2.92;;;0.93;;
55136;SDS011;41032;47.818;-3.732;2022-07-11T08:40:43;3.28;;;1.10;;
55136;SDS011;41032;47.818;-3.732;2022-07-11T08:43:15;3.90;;;0.85;;
55136;SDS011;41032;47.818;-3.732;2022-07-11T08:45:45;3.08;;;0.80;;
55136;SDS011;41032;47.818;-3.732;2022-07-11T08:48:14;4.15;;;0.80;;
55136;SDS011;41032;47.818;-3.732;2022-07-11T08:50:43;2.50;;;0.70;;
55136;SDS011;41032;47.818;-3.732;2022-07-11T08:53:12;3.80;;;1.02;;
55136;SDS011;41032;47.818;-3.732;2022-07-11T08:55:41;6.03;;;1.00;;
55136;SDS011;41032;47.818;-3.732;2022-07-11T08:58:09;2.97;;;0.95;;
55136;SDS011;41032;47.818;-3.732;2022-07-11T09:00:38;2.30;;;0.80;;
55136;SDS011;41032;47.818;-3.732;2022-07-11T09:03:10;6.68;;;0.73;;
55136;SDS011;41032;47.818;-3.732;2022-07-11T09:05:40;1.98;;;0.90;;
55136;SDS011;41032;47.818;-3.732;2022-07-11T09:08:09;1.05;;;0.50;;
55136;SDS011;41032;47.818;-3.732;2022-07-11T09:10:38;4.28;;;0.80;;
55136;SDS011;41032;47.818;-3.732;2022-07-11T09:13:08;2.42;;;1.10;;
55136;SDS011;41032;47.818;-3.732;2022-07-11T09:18:49;4.45;;;0.98;;
55136;SDS011;41032;47.818;-3.732;2022-07-11T09:23:55;3.35;;;0.70;;
55136;SDS011;41032;47.818;-3.732;2022-07-11T09:26:45;5.43;;;0.82;;
55136;SDS011;41032;47.818;-3.732;2022-07-11T09:29:15;1.45;;;0.70;;
55136;SDS011;41032;47.818;-3.732;2022-07-11T09:31:47;4.90;;;0.77;;
55136;SDS011;41032;47.818;-3.732;2022-07-11T09:34:17;3.85;;;1.00;;
55136;SDS011;41032;47.818;-3.732;2022-07-11T09:36:46;2.17;;;0.80;;
55136;SDS011;41032;47.818;-3.732;2022-07-11T09:39:22;1.88;;;0.80;;
55136;SDS011;41032;47.818;-3.732;2022-07-11T09:41:52;3.20;;;0.60;;
55136;SDS011;41032;47.818;-3.732;2022-07-11T09:44:22;3.35;;;0.82;;
55136;SDS011;41032;47.818;-3.732;2022-07-11T09:46:54;5.18;;;0.90;;
55136;SDS011;41032;47.818;-3.732;2022-07-11T09:49:33;4.80;;;1.30;;
55136;SDS011;41032;47.818;-3.732;2022-07-11T09:52:11;2.53;;;0.80;;
55136;SDS011;41032;47.818;-3.732;2022-07-11T09:54:59;6.15;;;1.10;;
55136;SDS011;41032;47.818;-3.732;2022-07-11T09:57:38;2.85;;;0.90;;
55136;SDS011;41032;47.818;-3.732;2022-07-11T10:00:07;4.57;;;1.10;;
55136;SDS011;41032;47.818;-3.732;2022-07-11T10:02:37;2.35;;;0.70;;
55136;SDS011;41032;47.818;-3.732;2022-07-11T10:05:06;2.90;;;0.90;;
55136;SDS011;41032;47.818;-3.732;2022-07-11T10:07:35;6.30;;;0.93;;
55136;SDS011;41032;47.818;-3.732;2022-07-11T10:10:04;1.40;;;0.82;;
55136;SDS011;41032;47.818;-3.732;2022-07-11T10:12:33;7.32;;;1.23;;
55136;SDS011;41032;47.818;-3.732;2022-07-11T10:15:07;3.42;;;0.88;;
55136;SDS011;41032;47.818;-3.732;2022-07-11T10:25:56;2.38;;;0.77;;
55136;SDS011;41032;47.818;-3.732;2022-07-11T10:31:19;1.73;;;0.70;;
55136;SDS011;41032;47.818;-3.732;2022-07-11T10:34:10;4.38;;;0.70;;
55136;SDS011;41032;47.818;-3.732;2022-07-11T10:36:42;2.92;;;0.60;;
55136;SDS011;41032;47.818;-3.732;2022-07-11T10:41:44;3.70;;;1.00;;
55136;SDS011;41032;47.818;-3.732;2022-07-11T10:44:13;2.97;;;1.00;;
55136;SDS011;41032;47.818;-3.732;2022-07-11T10:46:40;3.33;;;0.80;;
55136;SDS011;41032;47.818;-3.732;2022-07-11T11:00:22;4.10;;;0.80;;
55136;SDS011;41032;47.818;-3.732;2022-07-11T11:03:12;3.08;;;0.98;;
55136;SDS011;41032;47.818;-3.732;2022-07-11T11:08:51;3.40;;;0.68;;
55136;SDS011;41032;47.818;-3.732;2022-07-11T11:11:06;2.45;;;0.77;;
55136;SDS011;41032;47.818;-3.732;2022-07-11T11:14:23;4.10;;;1.10;;
55136;SDS011;41032;47.818;-3.732;2022-07-11T11:16:49;2.10;;;0.88;;
55136;SDS011;41032;47.818;-3.732;2022-07-11T11:20:02;4.05;;;0.90;;
55136;SDS011;41032;47.818;-3.732;2022-07-11T11:22:14;1.77;;;0.50;;
55136;SDS011;41032;47.818;-3.732;2022-07-11T11:24:44;4.18;;;0.70;;
55136;SDS011;41032;47.818;-3.732;2022-07-11T11:27:15;2.95;;;1.08;;
55136;SDS011;41032;47.818;-3.732;2022-07-11T11:29:45;1.00;;;0.60;;
55136;SDS011;41032;47.818;-3.732;2022-07-11T11:32:13;4.45;;;0.85;;
55136;SDS011;41032;47.818;-3.732;2022-07-11T11:34:41;1.88;;;0.82;;
55136;SDS011;41032;47.818;-3.732;2022-07-11T11:37:09;1.90;;;0.75;;
55136;SDS011;41032;47.818;-3.732;2022-07-11T11:39:38;1.45;;;0.70;;
55136;SDS011;41032;47.818;-3.732;2022-07-11T11:42:08;4.65;;;0.90;;
55136;SDS011;41032;47.818;-3.732;2022-07-11T11:44:48;1.73;;;0.80;;
55136;SDS011;41032;47.818;-3.732;2022-07-11T11:47:19;2.15;;;0.60;;
55136;SDS011;41032;47.818;-3.732;2022-07-11T11:49:48;1.55;;;0.65;;
55136;SDS011;41032;47.818;-3.732;2022-07-11T11:52:17;2.38;;;0.80;;
55136;SDS011;41032;47.818;-3.732;2022-07-11T11:54:50;1.50;;;0.70;;
55136;SDS011;41032;47.818;-3.732;2022-07-11T11:57:20;6.63;;;0.63;;
55136;SDS011;41032;47.818;-3.732;2022-07-11T11:59:50;1.25;;;0.63;;
55136;SDS011;41032;47.818;-3.732;2022-07-11T12:02:23;4.63;;;0.60;;
55136;SDS011;41032;47.818;-3.732;2022-07-11T12:04:52;6.63;;;1.17;;
55136;SDS011;41032;47.818;-3.732;2022-07-11T12:07:22;1.15;;;0.57;;
55136;SDS011;41032;47.818;-3.732;2022-07-11T12:09:56;1.10;;;0.60;;
55136;SDS011;41032;47.818;-3.732;2022-07-11T12:12:26;3.33;;;0.90;;
55136;SDS011;41032;47.818;-3.732;2022-07-11T12:15:33;6.28;;;0.90;;
55136;SDS011;41032;47.818;-3.732;2022-07-11T12:18:20;3.05;;;0.70;;
55136;SDS011;41032;47.818;-3.732;2022-07-11T12:20:50;2.17;;;0.60;;
55136;SDS011;41032;47.818;-3.732;2022-07-11T12:23:19;1.30;;;0.60;;
55136;SDS011;41032;47.818;-3.732;2022-07-11T12:25:48;2.78;;;0.80;;
55136;SDS011;41032;47.818;-3.732;2022-07-11T12:28:17;1.85;;;0.90;;
55136;SDS011;41032;47.818;-3.732;2022-07-11T12:30:53;3.67;;;0.80;;
55136;SDS011;41032;47.818;-3.732;2022-07-11T12:33:22;2.72;;;0.85;;
55136;SDS011;41032;47.818;-3.732;2022-07-11T12:36:00;6.93;;;1.73;;
55136;SDS011;41032;47.818;-3.732;2022-07-11T12:38:49;1.30;;;0.47;;
55136;SDS011;41032;47.818;-3.732;2022-07-11T12:41:17;3.13;;;0.80;;
55136;SDS011;41032;47.818;-3.732;2022-07-11T12:43:47;3.58;;;0.98;;
55136;SDS011;41032;47.818;-3.732;2022-07-11T12:46:35;3.72;;;0.93;;
55136;SDS011;41032;47.818;-3.732;2022-07-11T12:49:05;4.13;;;0.90;;
55136;SDS011;41032;47.818;-3.732;2022-07-11T12:51:36;3.90;;;0.98;;
55136;SDS011;41032;47.818;-3.732;2022-07-11T12:54:15;5.00;;;0.85;;
55136;SDS011;41032;47.818;-3.732;2022-07-11T12:56:53;2.95;;;0.80;;
55136;SDS011;41032;47.818;-3.732;2022-07-11T12:59:24;4.57;;;0.70;;
55136;SDS011;41032;47.818;-3.732;2022-07-11T13:01:58;4.72;;;1.05;;
55136;SDS011;41032;47.818;-3.732;2022-07-11T13:07:45;2.72;;;1.30;;
55136;SDS011;41032;47.818;-3.732;2022-07-11T13:12:45;1.95;;;1.08;;
55136;SDS011;41032;47.818;-3.732;2022-07-11T13:15:15;5.45;;;0.93;;
55136;SDS011;41032;47.818;-3.732;2022-07-11T13:20:18;5.60;;;0.70;;
55136;SDS011;41032;47.818;-3.732;2022-07-11T13:22:48;2.38;;;0.73;;
55136;SDS011;41032;47.818;-3.732;2022-07-11T13:25:18;2.72;;;0.70;;
55136;SDS011;41032;47.818;-3.732;2022-07-11T13:27:47;4.53;;;0.90;;
55136;SDS011;41032;47.818;-3.732;2022-07-11T13:30:17;1.55;;;0.65;;
55136;SDS011;41032;47.818;-3.732;2022-07-11T13:32:47;2.22;;;0.73;;
55136;SDS011;41032;47.818;-3.732;2022-07-11T13:35:16;3.33;;;0.85;;
55136;SDS011;41032;47.818;-3.732;2022-07-11T13:37:46;3.75;;;0.95;;
55136;SDS011;41032;47.818;-3.732;2022-07-11T13:40:16;1.38;;;0.68;;
55136;SDS011;41032;47.818;-3.732;2022-07-11T13:42:45;2.55;;;0.73;;
55136;SDS011;41032;47.818;-3.732;2022-07-11T13:45:16;5.57;;;0.95;;
55136;SDS011;41032;47.818;-3.732;2022-07-11T13:47:46;3.72;;;0.70;;
55136;SDS011;41032;47.818;-3.732;2022-07-11T13:50:15;3.03;;;0.77;;
55136;SDS011;41032;47.818;-3.732;2022-07-11T13:52:45;1.52;;;0.60;;
55136;SDS011;41032;47.818;-3.732;2022-07-11T13:55:14;2.42;;;0.60;;
55136;SDS011;41032;47.818;-3.732;2022-07-11T13:57:44;2.40;;;0.70;;
55136;SDS011;41032;47.818;-3.732;2022-07-11T14:00:15;3.70;;;0.85;;
55136;SDS011;41032;47.818;-3.732;2022-07-11T14:02:43;1.58;;;0.77;;
55136;SDS011;41032;47.818;-3.732;2022-07-11T14:05:12;1.20;;;0.70;;
55136;SDS011;41032;47.818;-3.732;2022-07-11T14:07:41;3.22;;;0.60;;
55136;SDS011;41032;47.818;-3.732;2022-07-11T14:10:09;1.88;;;1.05;;
55136;SDS011;41032;47.818;-3.732;2022-07-11T14:12:38;3.15;;;0.80;;
55136;SDS011;41032;47.818;-3.732;2022-07-11T14:15:07;1.50;;;0.60;;
55136;SDS011;41032;47.818;-3.732;2022-07-11T14:17:36;1.45;;;0.50;;
55136;SDS011;41032;47.818;-3.732;2022-07-11T14:20:05;2.63;;;0.70;;
55136;SDS011;41032;47.818;-3.732;2022-07-11T14:22:34;4.97;;;0.93;;
55136;SDS011;41032;47.818;-3.732;2022-07-11T14:25:02;2.13;;;0.70;;
55136;SDS011;41032;47.818;-3.732;2022-07-11T14:27:31;3.67;;;0.60;;
55136;SDS011;41032;47.818;-3.732;2022-07-11T14:30:05;3.75;;;0.88;;
55136;SDS011;41032;47.818;-3.732;2022-07-11T14:32:34;6.38;;;1.08;;
55136;SDS011;41032;47.818;-3.732;2022-07-11T14:35:03;2.58;;;0.70;;
55136;SDS011;41032;47.818;-3.732;2022-07-11T14:37:32;4.45;;;0.50;;
55136;SDS011;41032;47.818;-3.732;2022-07-11T14:40:01;2.10;;;0.68;;
55136;SDS011;41032;47.818;-3.732;2022-07-11T14:42:29;6.03;;;0.88;;
55136;SDS011;41032;47.818;-3.732;2022-07-11T14:44:58;2.25;;;0.80;;
55136;SDS011;41032;47.818;-3.732;2022-07-11T14:47:26;6.20;;;0.60;;
55136;SDS011;41032;47.818;-3.732;2022-07-11T14:49:55;3.08;;;0.80;;
55136;SDS011;41032;47.818;-3.732;2022-07-11T14:52:23;3.13;;;1.08;;
55136;SDS011;41032;47.818;-3.732;2022-07-11T14:54:52;1.40;;;0.45;;
55136;SDS011;41032;47.818;-3.732;2022-07-11T14:57:20;1.80;;;0.82;;
55136;SDS011;41032;47.818;-3.732;2022-07-11T14:59:49;4.18;;;0.80;;
55136;SDS011;41032;47.818;-3.732;2022-07-11T15:02:18;1.88;;;0.88;;
55136;SDS011;41032;47.818;-3.732;2022-07-11T15:05:05;4.72;;;0.88;;
55136;SDS011;41032;47.818;-3.732;2022-07-11T15:07:34;1.20;;;0.60;;
55136;SDS011;41032;47.818;-3.732;2022-07-11T15:10:21;1.95;;;0.70;;
55136;SDS011;41032;47.818;-3.732;2022-07-11T15:13:08;5.20;;;0.90;;
55136;SDS011;41032;47.818;-3.732;2022-07-11T15:15:36;4.75;;;0.60;;
55136;SDS011;41032;47.818;-3.732;2022-07-11T15:18:05;1.30;;;0.60;;
55136;SDS011;41032;47.818;-3.732;2022-07-11T15:20:33;1.73;;;0.57;;
55136;SDS011;41032;47.818;-3.732;2022-07-11T15:23:02;2.63;;;0.68;;
55136;SDS011;41032;47.818;-3.732;2022-07-11T15:25:30;4.97;;;0.77;;
55136;SDS011;41032;47.818;-3.732;2022-07-11T15:27:59;2.88;;;0.80;;
55136;SDS011;41032;47.818;-3.732;2022-07-11T15:30:27;1.33;;;0.45;;